Terminal Aerodrome Forecast
Issued by NWS

Home | Current Version | Previous Version | Text Only | Print | Product List | Glossary On
Versions: 1 2 3 4 5 6 7 8 9 10 11 12 13
000
FTUS41 KCAR 280520
TAFFVE
TAF
KFVE 280520Z 2806/2906 VRB03KT P6SM SCT200
     FM281500 34005KT P6SM BKN020
     FM282030 34005KT P6SM VCSH SCT025
     FM290000 VRB03KT 5SM -SHSN BKN030
     FM290200 VRB03KT P6SM SKC=

USA.gov is the U.S. government's official web portal to all federal, state and local government web resources and services.